sensor_id;sensor_type;location;lat;lon;timestamp;pressure;altitude;pressure_sealevel;temperature;humidity
51243;BME280;37812;47.556;18.718;2022-07-29T00:00:08;99679.84;;;20.26;63.13
51243;BME280;37812;47.556;18.718;2022-07-29T00:02:35;99685.25;;;19.65;65.68
51243;BME280;37812;47.556;18.718;2022-07-29T00:05:02;99693.97;;;19.77;66.79
51243;BME280;37812;47.556;18.718;2022-07-29T00:07:28;99694.88;;;19.59;67.64
51243;BME280;37812;47.556;18.718;2022-07-29T00:09:54;99698.34;;;19.62;67.27
51243;BME280;37812;47.556;18.718;2022-07-29T00:12:22;99693.97;;;19.77;66.75
51243;BME280;37812;47.556;18.718;2022-07-29T00:14:49;99693.94;;;19.09;70.00
51243;BME280;37812;47.556;18.718;2022-07-29T00:17:15;99686.94;;;19.14;69.62
51243;BME280;37812;47.556;18.718;2022-07-29T00:19:41;99686.88;;;18.84;70.77
51243;BME280;37812;47.556;18.718;2022-07-29T00:22:07;99685.16;;;18.95;70.05
51243;BME280;37812;47.556;18.718;2022-07-29T00:24:33;99690.47;;;19.26;69.11
51243;BME280;37812;47.556;18.718;2022-07-29T00:26:59;99674.72;;;19.62;66.48
51243;BME280;37812;47.556;18.718;2022-07-29T00:29:24;99681.72;;;19.66;67.43
51243;BME280;37812;47.556;18.718;2022-07-29T00:31:50;99681.72;;;19.36;69.46
51243;BME280;37812;47.556;18.718;2022-07-29T00:34:16;99688.72;;;19.34;70.46
51243;BME280;37812;47.556;18.718;2022-07-29T00:37:01;99682.59;;;19.18;70.46
51243;BME280;37812;47.556;18.718;2022-07-29T00:39:27;99685.19;;;19.24;69.50
51243;BME280;37812;47.556;18.718;2022-07-29T00:41:53;99685.22;;;19.26;69.52
51243;BME280;37812;47.556;18.718;2022-07-29T00:44:19;99686.09;;;19.17;69.75
51243;BME280;37812;47.556;18.718;2022-07-29T00:46:45;99681.69;;;19.21;70.15
51243;BME280;37812;47.556;18.718;2022-07-29T00:49:11;99685.16;;;19.07;70.90
51243;BME280;37812;47.556;18.718;2022-07-29T00:51:37;99685.16;;;19.07;70.82
51243;BME280;37812;47.556;18.718;2022-07-29T00:54:04;99686.00;;;18.85;71.93
51243;BME280;37812;47.556;18.718;2022-07-29T00:56:31;99686.88;;;18.93;71.09
51243;BME280;37812;47.556;18.718;2022-07-29T00:58:58;99682.56;;;19.10;70.58
51243;BME280;37812;47.556;18.718;2022-07-29T01:01:24;99686.09;;;19.43;67.46
51243;BME280;37812;47.556;18.718;2022-07-29T01:03:50;99685.19;;;19.53;68.74
51243;BME280;37812;47.556;18.718;2022-07-29T01:06:18;99681.75;;;19.57;68.63
51243;BME280;37812;47.556;18.718;2022-07-29T01:08:47;99683.47;;;19.61;68.51
51243;BME280;37812;47.556;18.718;2022-07-29T01:11:16;99676.47;;;19.69;68.29
51243;BME280;37812;47.556;18.718;2022-07-29T01:13:43;99676.47;;;19.69;68.49
51243;BME280;37812;47.556;18.718;2022-07-29T01:16:35;99672.94;;;19.46;70.05
51243;BME280;37812;47.556;18.718;2022-07-29T01:19:16;99674.69;;;19.53;68.85
51243;BME280;37812;47.556;18.718;2022-07-29T01:21:57;99678.22;;;19.55;68.66
51243;BME280;37812;47.556;18.718;2022-07-29T01:27:31;99667.72;;;19.74;67.62
51243;BME280;37812;47.556;18.718;2022-07-29T01:30:01;99679.13;;;19.71;68.68
51243;BME280;37812;47.556;18.718;2022-07-29T01:32:31;99672.97;;;19.80;68.44
51243;BME280;37812;47.556;18.718;2022-07-29T01:35:26;99678.22;;;19.83;67.59
51243;BME280;37812;47.556;18.718;2022-07-29T01:38:01;99673.78;;;19.98;65.39
51243;BME280;37812;47.556;18.718;2022-07-29T01:40:39;99672.72;;;20.65;61.04
51243;BME280;37812;47.556;18.718;2022-07-29T01:43:11;99678.59;;;21.07;58.92
51243;BME280;37812;47.556;18.718;2022-07-29T01:45:51;99676.69;;;21.35;57.91
51243;BME280;37812;47.556;18.718;2022-07-29T01:48:24;99679.06;;;21.64;56.43
51243;BME280;37812;47.556;18.718;2022-07-29T01:51:18;99674.50;;;21.81;55.70
51243;BME280;37812;47.556;18.718;2022-07-29T01:53:47;99675.31;;;21.89;54.85
51243;BME280;37812;47.556;18.718;2022-07-29T01:56:16;99669.12;;;21.92;55.44
51243;BME280;37812;47.556;18.718;2022-07-29T01:58:45;99670.09;;;21.82;56.25
51243;BME280;37812;47.556;18.718;2022-07-29T02:01:12;99670.06;;;21.86;55.53
51243;BME280;37812;47.556;18.718;2022-07-29T02:03:43;99664.66;;;22.02;54.90
51243;BME280;37812;47.556;18.718;2022-07-29T02:06:12;99673.37;;;22.10;54.57
51243;BME280;37812;47.556;18.718;2022-07-29T02:08:40;99666.19;;;22.21;54.15
51243;BME280;37812;47.556;18.718;2022-07-29T02:11:08;99662.78;;;22.16;54.58
51243;BME280;37812;47.556;18.718;2022-07-29T02:13:35;99658.34;;;22.18;54.27
51243;BME280;37812;47.556;18.718;2022-07-29T02:16:05;99650.56;;;22.03;55.58
51243;BME280;37812;47.556;18.718;2022-07-29T02:18:33;99651.50;;;21.99;55.04
51243;BME280;37812;47.556;18.718;2022-07-29T02:21:03;99654.34;;;21.77;57.33
51243;BME280;37812;47.556;18.718;2022-07-29T02:23:31;99652.97;;;21.36;59.06
51243;BME280;37812;47.556;18.718;2022-07-29T02:25:58;99654.16;;;20.94;59.81
51243;BME280;37812;47.556;18.718;2022-07-29T02:28:27;99648.88;;;20.93;60.12
51243;BME280;37812;47.556;18.718;2022-07-29T02:30:59;99646.34;;;20.80;61.78
51243;BME280;37812;47.556;18.718;2022-07-29T02:33:27;99655.12;;;20.73;62.00
51243;BME280;37812;47.556;18.718;2022-07-29T02:35:56;99654.25;;;20.74;62.19
51243;BME280;37812;47.556;18.718;2022-07-29T02:38:23;99654.34;;;20.59;62.28
51243;BME280;37812;47.556;18.718;2022-07-29T02:41:16;99646.47;;;20.53;63.70
51243;BME280;37812;47.556;18.718;2022-07-29T02:43:45;99657.06;;;20.28;64.75
51243;BME280;37812;47.556;18.718;2022-07-29T02:46:24;99655.38;;;20.12;64.73
51243;BME280;37812;47.556;18.718;2022-07-29T02:48:58;99659.75;;;20.18;64.41
51243;BME280;37812;47.556;18.718;2022-07-29T02:51:29;99660.66;;;20.09;65.76
51243;BME280;37812;47.556;18.718;2022-07-29T02:54:01;99662.38;;;20.07;64.71
51243;BME280;37812;47.556;18.718;2022-07-29T02:56:32;99664.16;;;20.11;65.92
51243;BME280;37812;47.556;18.718;2022-07-29T02:59:09;99660.72;;;19.60;67.79
51243;BME280;37812;47.556;18.718;2022-07-29T03:01:39;99655.47;;;19.66;67.88
51243;BME280;37812;47.556;18.718;2022-07-29T03:04:07;99658.97;;;19.62;67.77
51243;BME280;37812;47.556;18.718;2022-07-29T03:06:34;99655.50;;;19.63;68.78
51243;BME280;37812;47.556;18.718;2022-07-29T03:09:01;99658.97;;;19.70;67.62
51243;BME280;37812;47.556;18.718;2022-07-29T03:11:28;99669.44;;;19.47;69.50
51243;BME280;37812;47.556;18.718;2022-07-29T03:13:54;99662.47;;;19.43;69.95
51243;BME280;37812;47.556;18.718;2022-07-29T03:16:21;99661.59;;;19.56;69.32
51243;BME280;37812;47.556;18.718;2022-07-29T03:18:49;99664.25;;;19.65;69.64
51243;BME280;37812;47.556;18.718;2022-07-29T03:21:16;99671.16;;;18.84;73.36
51243;BME280;37812;47.556;18.718;2022-07-29T03:23:45;99665.06;;;18.94;72.12
51243;BME280;37812;47.556;18.718;2022-07-29T03:26:12;99666.84;;;19.18;71.65
51243;BME280;37812;47.556;18.718;2022-07-29T03:28:38;99664.22;;;19.35;70.70
51243;BME280;37812;47.556;18.718;2022-07-29T03:31:04;99669.47;;;19.41;69.73
51243;BME280;37812;47.556;18.718;2022-07-29T03:33:30;99656.38;;;19.59;69.77
51243;BME280;37812;47.556;18.718;2022-07-29T03:35:56;99665.13;;;19.57;69.50
51243;BME280;37812;47.556;18.718;2022-07-29T03:38:25;99665.97;;;19.45;70.46
51243;BME280;37812;47.556;18.718;2022-07-29T03:41:06;99667.72;;;19.12;71.73
51243;BME280;37812;47.556;18.718;2022-07-29T03:43:36;99667.72;;;19.44;69.91
51243;BME280;37812;47.556;18.718;2022-07-29T03:46:06;99664.19;;;19.53;70.65
51243;BME280;37812;47.556;18.718;2022-07-29T03:48:34;99676.47;;;19.45;72.00
51243;BME280;37812;47.556;18.718;2022-07-29T03:51:02;99672.97;;;19.74;70.79
51243;BME280;37812;47.556;18.718;2022-07-29T03:53:28;99678.19;;;19.95;69.46
51243;BME280;37812;47.556;18.718;2022-07-29T03:55:58;99682.53;;;20.10;69.35
51243;BME280;37812;47.556;18.718;2022-07-29T03:58:26;99681.63;;;20.15;69.46
51243;BME280;37812;47.556;18.718;2022-07-29T04:00:54;99673.72;;;20.26;68.68
51243;BME280;37812;47.556;18.718;2022-07-29T04:03:21;99671.91;;;20.45;67.45
51243;BME280;37812;47.556;18.718;2022-07-29T04:06:01;99673.56;;;20.72;65.60
51243;BME280;37812;47.556;18.718;2022-07-29T04:08:28;99683.06;;;20.93;66.08
51243;BME280;37812;47.556;18.718;2022-07-29T04:10:54;99675.88;;;21.19;65.75
51243;BME280;37812;47.556;18.718;2022-07-29T04:13:20;99674.97;;;21.25;64.64
51243;BME280;37812;47.556;18.718;2022-07-29T04:15:46;99675.19;;;21.99;62.66
51243;BME280;37812;47.556;18.718;2022-07-29T04:18:12;99679.75;;;22.63;59.60
51243;BME280;37812;47.556;18.718;2022-07-29T04:20:38;99673.75;;;23.15;59.21
51243;BME280;37812;47.556;18.718;2022-07-29T04:23:04;99682.63;;;23.11;58.89
51243;BME280;37812;47.556;18.718;2022-07-29T04:25:29;99684.78;;;23.41;58.28
51243;BME280;37812;47.556;18.718;2022-07-29T04:27:55;99680.03;;;23.65;57.18
51243;BME280;37812;47.556;18.718;2022-07-29T04:30:28;99677.97;;;24.72;53.59
51243;BME280;37812;47.556;18.718;2022-07-29T04:32:55;99682.66;;;25.73;51.17
51243;BME280;37812;47.556;18.718;2022-07-29T04:35:21;99684.91;;;26.52;47.74
51243;BME280;37812;47.556;18.718;2022-07-29T04:37:47;99685.41;;;26.03;49.60
51243;BME280;37812;47.556;18.718;2022-07-29T04:40:13;99678.44;;;26.31;47.54
51243;BME280;37812;47.556;18.718;2022-07-29T04:42:39;99681.84;;;26.04;50.74
51243;BME280;37812;47.556;18.718;2022-07-29T04:45:06;99676.44;;;25.39;53.66
51243;BME280;37812;47.556;18.718;2022-07-29T04:47:31;99678.41;;;25.31;52.90
51243;BME280;37812;47.556;18.718;2022-07-29T04:49:57;99678.38;;;25.32;52.88
51243;BME280;37812;47.556;18.718;2022-07-29T04:52:24;99679.56;;;24.38;56.42
51243;BME280;37812;47.556;18.718;2022-07-29T04:54:50;99687.19;;;25.33;54.51
51243;BME280;37812;47.556;18.718;2022-07-29T04:57:16;99679.59;;;26.52;51.47
51243;BME280;37812;47.556;18.718;2022-07-29T04:59:42;99685.53;;;26.62;50.36
51243;BME280;37812;47.556;18.718;2022-07-29T05:02:07;99678.34;;;27.23;48.01
51243;BME280;37812;47.556;18.718;2022-07-29T05:04:33;99675.50;;;27.56;46.01
51243;BME280;37812;47.556;18.718;2022-07-29T05:06:59;99683.41;;;26.73;49.54
51243;BME280;37812;47.556;18.718;2022-07-29T05:09:25;99678.94;;;27.86;47.41
51243;BME280;37812;47.556;18.718;2022-07-29T05:11:51;99676.69;;;28.95;44.40
51243;BME280;37812;47.556;18.718;2022-07-29T05:14:17;99681.66;;;30.50;40.39
51243;BME280;37812;47.556;18.718;2022-07-29T05:16:43;99674.41;;;31.10;39.53
51243;BME280;37812;47.556;18.718;2022-07-29T05:19:09;99680.03;;;32.28;36.85
51243;BME280;37812;47.556;18.718;2022-07-29T05:21:35;99680.19;;;33.69;32.24
51243;BME280;37812;47.556;18.718;2022-07-29T05:24:01;99681.78;;;32.78;33.34
51243;BME280;37812;47.556;18.718;2022-07-29T05:26:27;99684.31;;;32.15;33.56
51243;BME280;37812;47.556;18.718;2022-07-29T05:28:53;99675.91;;;34.25;29.24
51243;BME280;37812;47.556;18.718;2022-07-29T05:31:20;99673.22;;;34.96;27.83
51243;BME280;37812;47.556;18.718;2022-07-29T05:33:46;99680.53;;;34.94;28.54
51243;BME280;37812;47.556;18.718;2022-07-29T05:36:11;99682.41;;;32.17;31.36
51243;BME280;37812;47.556;18.718;2022-07-29T05:38:37;99682.09;;;34.41;29.25
51243;BME280;37812;47.556;18.718;2022-07-29T05:41:04;99689.34;;;34.25;29.58
51243;BME280;37812;47.556;18.718;2022-07-29T05:43:31;99680.69;;;33.45;31.39
51243;BME280;37812;47.556;18.718;2022-07-29T05:45:57;99691.28;;;34.66;28.56
51243;BME280;37812;47.556;18.718;2022-07-29T05:48:24;99684.50;;;32.94;32.18
51243;BME280;37812;47.556;18.718;2022-07-29T05:50:50;99682.09;;;33.21;31.45
51243;BME280;37812;47.556;18.718;2022-07-29T05:53:16;99687.06;;;33.59;30.23
51243;BME280;37812;47.556;18.718;2022-07-29T05:55:42;99686.75;;;36.66;25.91
51243;BME280;37812;47.556;18.718;2022-07-29T05:58:08;99680.59;;;36.26;26.28
51243;BME280;37812;47.556;18.718;2022-07-29T06:00:34;99689.37;;;38.69;23.04
51243;BME280;37812;47.556;18.718;2022-07-29T06:03:00;99680.56;;;37.74;24.63
51243;BME280;37812;47.556;18.718;2022-07-29T06:05:26;99688.50;;;38.11;24.35
51243;BME280;37812;47.556;18.718;2022-07-29T06:07:52;99689.34;;;35.64;26.66
51243;BME280;37812;47.556;18.718;2022-07-29T06:10:18;99691.78;;;38.27;23.73
51243;BME280;37812;47.556;18.718;2022-07-29T06:12:44;99692.38;;;36.89;24.59
51243;BME280;37812;47.556;18.718;2022-07-29T06:15:10;99694.47;;;32.08;32.02
51243;BME280;37812;47.556;18.718;2022-07-29T06:17:36;99691.94;;;35.39;27.37
51243;BME280;37812;47.556;18.718;2022-07-29T06:20:03;99689.84;;;35.30;27.13
51243;BME280;37812;47.556;18.718;2022-07-29T06:22:29;99678.56;;;36.55;25.30
51243;BME280;37812;47.556;18.718;2022-07-29T06:24:55;99689.47;;;35.88;26.41
51243;BME280;37812;47.556;18.718;2022-07-29T06:27:21;99687.41;;;36.32;25.82
51243;BME280;37812;47.556;18.718;2022-07-29T06:29:47;99688.06;;;37.47;23.56
51243;BME280;37812;47.556;18.718;2022-07-29T06:32:13;99696.25;;;37.69;23.44
51243;BME280;37812;47.556;18.718;2022-07-29T06:34:39;99699.50;;;36.39;25.11
51243;BME280;37812;47.556;18.718;2022-07-29T06:37:08;99703.78;;;33.94;28.78
51243;BME280;37812;47.556;18.718;2022-07-29T06:39:37;99711.53;;;32.41;31.50
51243;BME280;37812;47.556;18.718;2022-07-29T06:42:04;99696.34;;;32.57;31.37
51243;BME280;37812;47.556;18.718;2022-07-29T06:44:30;99710.16;;;32.82;30.66
51243;BME280;37812;47.556;18.718;2022-07-29T06:46:56;99710.22;;;34.20;28.71
51243;BME280;37812;47.556;18.718;2022-07-29T06:49:22;99710.69;;;34.42;28.43
51243;BME280;37812;47.556;18.718;2022-07-29T06:51:49;99712.25;;;32.93;30.06
51243;BME280;37812;47.556;18.718;2022-07-29T06:54:15;99712.84;;;34.21;28.54
51243;BME280;37812;47.556;18.718;2022-07-29T06:56:41;99704.25;;;35.43;26.98
51243;BME280;37812;47.556;18.718;2022-07-29T06:59:10;99704.63;;;36.04;25.91
51243;BME280;37812;47.556;18.718;2022-07-29T07:01:37;99699.50;;;35.20;26.79
51243;BME280;37812;47.556;18.718;2022-07-29T07:04:03;99704.91;;;36.39;25.51
51243;BME280;37812;47.556;18.718;2022-07-29T07:06:29;99703.53;;;36.95;25.18
51243;BME280;37812;47.556;18.718;2022-07-29T07:08:55;99695.00;;;37.25;24.21
51243;BME280;37812;47.556;18.718;2022-07-29T07:11:21;99693.75;;;37.18;24.17
51243;BME280;37812;47.556;18.718;2022-07-29T07:13:47;99710.13;;;38.11;23.10
51243;BME280;37812;47.556;18.718;2022-07-29T07:16:13;99710.25;;;38.78;22.55
51243;BME280;37812;47.556;18.718;2022-07-29T07:18:39;99704.84;;;38.78;22.31
51243;BME280;37812;47.556;18.718;2022-07-29T07:21:06;99698.06;;;39.61;21.29
51243;BME280;37812;47.556;18.718;2022-07-29T07:23:32;99697.13;;;40.04;20.66
51243;BME280;37812;47.556;18.718;2022-07-29T07:25:57;99695.38;;;39.50;21.68
51243;BME280;37812;47.556;18.718;2022-07-29T07:28:23;99697.97;;;40.25;20.44
51243;BME280;37812;47.556;18.718;2022-07-29T07:30:49;99701.38;;;38.54;22.05
51243;BME280;37812;47.556;18.718;2022-07-29T07:33:15;99695.25;;;38.85;22.35
51243;BME280;37812;47.556;18.718;2022-07-29T07:35:41;99692.62;;;38.95;22.24
51243;BME280;37812;47.556;18.718;2022-07-29T07:38:07;99690.78;;;39.61;21.38
51243;BME280;37812;47.556;18.718;2022-07-29T07:40:33;99689.44;;;39.01;21.49
51243;BME280;37812;47.556;18.718;2022-07-29T07:42:59;99690.34;;;39.45;21.51
51243;BME280;37812;47.556;18.718;2022-07-29T07:45:25;99695.47;;;36.32;24.91
51243;BME280;37812;47.556;18.718;2022-07-29T07:47:51;99689.19;;;37.79;23.17
51243;BME280;37812;47.556;18.718;2022-07-29T07:50:17;99689.72;;;37.61;23.72
51243;BME280;37812;47.556;18.718;2022-07-29T07:52:54;99690.88;;;36.46;26.17
51243;BME280;37812;47.556;18.718;2022-07-29T07:55:24;99692.25;;;34.50;27.96
51243;BME280;37812;47.556;18.718;2022-07-29T07:57:50;99684.47;;;32.78;31.33
51243;BME280;37812;47.556;18.718;2022-07-29T08:00:16;99682.25;;;32.86;30.40
51243;BME280;37812;47.556;18.718;2022-07-29T08:02:42;99680.03;;;36.72;25.52
51243;BME280;37812;47.556;18.718;2022-07-29T08:05:10;99680.72;;;35.99;25.57
51243;BME280;37812;47.556;18.718;2022-07-29T08:07:38;99679.84;;;33.13;30.61
51243;BME280;37812;47.556;18.718;2022-07-29T08:10:04;99678.59;;;33.19;29.67
51243;BME280;37812;47.556;18.718;2022-07-29T08:12:30;99677.81;;;33.79;29.63
51243;BME280;37812;47.556;18.718;2022-07-29T08:14:56;99678.28;;;32.94;30.43
51243;BME280;37812;47.556;18.718;2022-07-29T08:17:22;99671.13;;;32.61;30.74
51243;BME280;37812;47.556;18.718;2022-07-29T08:19:48;99674.22;;;34.52;29.07
51243;BME280;37812;47.556;18.718;2022-07-29T08:22:15;99674.41;;;32.66;30.83
51243;BME280;37812;47.556;18.718;2022-07-29T08:24:41;99673.37;;;32.53;31.47
51243;BME280;37812;47.556;18.718;2022-07-29T08:27:13;99679.94;;;32.63;30.86
51243;BME280;37812;47.556;18.718;2022-07-29T08:29:39;99678.97;;;33.13;32.22
51243;BME280;37812;47.556;18.718;2022-07-29T08:32:06;99674.53;;;32.31;32.31
51243;BME280;37812;47.556;18.718;2022-07-29T08:34:32;99682.50;;;32.49;31.99
51243;BME280;37812;47.556;18.718;2022-07-29T08:36:58;99672.81;;;33.11;30.85
51243;BME280;37812;47.556;18.718;2022-07-29T08:39:24;99672.72;;;32.97;30.44
51243;BME280;37812;47.556;18.718;2022-07-29T08:41:51;99674.38;;;32.50;31.96
51243;BME280;37812;47.556;18.718;2022-07-29T08:44:18;99673.63;;;32.64;32.03
51243;BME280;37812;47.556;18.718;2022-07-29T08:46:45;99670.41;;;32.57;31.71
51243;BME280;37812;47.556;18.718;2022-07-29T08:49:11;99668.72;;;33.35;30.74
51243;BME280;37812;47.556;18.718;2022-07-29T08:51:39;99676.47;;;34.16;29.93
51243;BME280;37812;47.556;18.718;2022-07-29T08:54:06;99667.75;;;34.83;26.64
51243;BME280;37812;47.556;18.718;2022-07-29T08:56:34;99672.16;;;32.74;31.11
51243;BME280;37812;47.556;18.718;2022-07-29T08:59:03;99669.44;;;33.23;30.95
51243;BME280;37812;47.556;18.718;2022-07-29T09:01:29;99669.97;;;33.14;31.25
51243;BME280;37812;47.556;18.718;2022-07-29T09:03:58;99670.97;;;32.64;30.98
51243;BME280;37812;47.556;18.718;2022-07-29T09:06:30;99660.56;;;34.70;28.01
51243;BME280;37812;47.556;18.718;2022-07-29T09:08:59;99666.09;;;34.81;28.89
51243;BME280;37812;47.556;18.718;2022-07-29T09:11:25;99669.88;;;34.50;27.19
51243;BME280;37812;47.556;18.718;2022-07-29T09:13:51;99671.50;;;33.50;29.49
51243;BME280;37812;47.556;18.718;2022-07-29T09:16:17;99673.16;;;34.69;28.33
51243;BME280;37812;47.556;18.718;2022-07-29T09:18:45;99667.13;;;33.63;28.72
51243;BME280;37812;47.556;18.718;2022-07-29T09:21:16;99663.13;;;33.24;29.29
51243;BME280;37812;47.556;18.718;2022-07-29T09:26:31;99661.72;;;32.54;30.42
51243;BME280;37812;47.556;18.718;2022-07-29T09:28:58;99654.75;;;32.17;30.90
51243;BME280;37812;47.556;18.718;2022-07-29T09:31:35;99656.19;;;33.82;27.62
51243;BME280;37812;47.556;18.718;2022-07-29T09:34:03;99653.88;;;33.14;27.77
51243;BME280;37812;47.556;18.718;2022-07-29T09:36:29;99648.84;;;32.76;29.38
51243;BME280;37812;47.556;18.718;2022-07-29T09:39:00;99649.50;;;32.15;29.39
51243;BME280;37812;47.556;18.718;2022-07-29T09:41:27;99651.97;;;32.69;28.44
51243;BME280;37812;47.556;18.718;2022-07-29T09:43:57;99642.94;;;35.07;27.03
51243;BME280;37812;47.556;18.718;2022-07-29T09:46:26;99646.56;;;34.50;26.51
51243;BME280;37812;47.556;18.718;2022-07-29T09:49:12;99644.19;;;33.87;27.53
51243;BME280;37812;47.556;18.718;2022-07-29T09:51:38;99639.75;;;35.15;25.57
51243;BME280;37812;47.556;18.718;2022-07-29T09:56:48;99632.25;;;33.63;27.51
51243;BME280;37812;47.556;18.718;2022-07-29T09:59:15;99634.72;;;33.20;28.09
51243;BME280;37812;47.556;18.718;2022-07-29T10:01:41;99637.97;;;32.95;28.26
51243;BME280;37812;47.556;18.718;2022-07-29T10:04:07;99633.28;;;33.30;27.78
51243;BME280;37812;47.556;18.718;2022-07-29T10:06:33;99628.41;;;33.53;26.32
51243;BME280;37812;47.556;18.718;2022-07-29T10:09:17;99628.81;;;33.61;26.72
51243;BME280;37812;47.556;18.718;2022-07-29T10:12:02;99628.78;;;34.19;24.78
51243;BME280;37812;47.556;18.718;2022-07-29T10:14:31;99628.19;;;33.56;26.65
51243;BME280;37812;47.556;18.718;2022-07-29T10:16:58;99631.41;;;33.01;26.74
51243;BME280;37812;47.556;18.718;2022-07-29T10:19:25;99623.59;;;32.80;25.98
51243;BME280;37812;47.556;18.718;2022-07-29T10:21:52;99620.72;;;32.19;26.21
51243;BME280;37812;47.556;18.718;2022-07-29T10:24:18;99624.25;;;32.85;26.60
51243;BME280;37812;47.556;18.718;2022-07-29T10:26:45;99622.28;;;33.19;25.71
51243;BME280;37812;47.556;18.718;2022-07-29T10:29:12;99620.09;;;33.41;25.11
51243;BME280;37812;47.556;18.718;2022-07-29T10:31:47;99614.41;;;33.92;24.96
51243;BME280;37812;47.556;18.718;2022-07-29T10:37:16;99609.78;;;33.04;25.84
51243;BME280;37812;47.556;18.718;2022-07-29T10:40:10;99611.63;;;33.93;26.40
51243;BME280;37812;47.556;18.718;2022-07-29T10:43:04;99606.44;;;33.30;25.72
51243;BME280;37812;47.556;18.718;2022-07-29T10:45:34;99600.19;;;33.76;24.54
51243;BME280;37812;47.556;18.718;2022-07-29T10:48:04;99603.47;;;33.51;25.98
51243;BME280;37812;47.556;18.718;2022-07-29T10:53:21;99593.06;;;33.89;25.29
51243;BME280;37812;47.556;18.718;2022-07-29T10:55:47;99601.56;;;33.97;25.20
51243;BME280;37812;47.556;18.718;2022-07-29T10:58:19;99587.47;;;34.08;25.81
51243;BME280;37812;47.556;18.718;2022-07-29T11:00:47;99588.34;;;33.64;24.17
51243;BME280;37812;47.556;18.718;2022-07-29T11:03:47;99586.50;;;34.23;24.09
51243;BME280;37812;47.556;18.718;2022-07-29T11:06:14;99585.78;;;33.62;25.23
51243;BME280;37812;47.556;18.718;2022-07-29T11:08:41;99584.41;;;33.99;24.13
51243;BME280;37812;47.556;18.718;2022-07-29T11:13:52;99575.88;;;34.91;23.88
51243;BME280;37812;47.556;18.718;2022-07-29T11:16:21;99583.66;;;33.07;26.10
51243;BME280;37812;47.556;18.718;2022-07-29T11:21:44;99567.19;;;33.29;27.76
51243;BME280;37812;47.556;18.718;2022-07-29T11:24:17;99576.75;;;34.08;24.64
51243;BME280;37812;47.556;18.718;2022-07-29T11:26:44;99565.19;;;34.34;25.26
51243;BME280;37812;47.556;18.718;2022-07-29T11:29:21;99572.63;;;32.98;27.24
51243;BME280;37812;47.556;18.718;2022-07-29T11:31:52;99568.53;;;33.36;26.76
51243;BME280;37812;47.556;18.718;2022-07-29T11:39:44;99552.50;;;33.65;25.45
51243;BME280;37812;47.556;18.718;2022-07-29T11:47:22;99548.47;;;33.58;26.00
51243;BME280;37812;47.556;18.718;2022-07-29T11:49:49;99550.06;;;34.19;25.77
51243;BME280;37812;47.556;18.718;2022-07-29T11:52:20;99544.88;;;34.71;24.27
51243;BME280;37812;47.556;18.718;2022-07-29T11:54:50;99534.31;;;34.27;24.87
51243;BME280;37812;47.556;18.718;2022-07-29T11:57:17;99539.00;;;34.79;24.43
51243;BME280;37812;47.556;18.718;2022-07-29T11:59:46;99534.06;;;35.78;23.16
51243;BME280;37812;47.556;18.718;2022-07-29T12:02:13;99534.81;;;35.54;22.64
51243;BME280;37812;47.556;18.718;2022-07-29T12:07:16;99526.41;;;36.23;22.69
51243;BME280;37812;47.556;18.718;2022-07-29T12:09:52;99528.59;;;34.87;23.79
51243;BME280;37812;47.556;18.718;2022-07-29T12:12:20;99528.44;;;34.90;23.97
51243;BME280;37812;47.556;18.718;2022-07-29T12:14:46;99521.06;;;35.46;23.08
51243;BME280;37812;47.556;18.718;2022-07-29T12:17:28;99527.75;;;36.04;22.03
51243;BME280;37812;47.556;18.718;2022-07-29T12:19:59;99521.41;;;36.42;21.73
51243;BME280;37812;47.556;18.718;2022-07-29T12:22:37;99522.22;;;37.03;20.66
51243;BME280;37812;47.556;18.718;2022-07-29T12:25:14;99528.22;;;34.93;22.60
51243;BME280;37812;47.556;18.718;2022-07-29T12:27:42;99508.31;;;34.42;23.49
51243;BME280;37812;47.556;18.718;2022-07-29T12:30:13;99508.50;;;34.39;23.63
51243;BME280;37812;47.556;18.718;2022-07-29T12:32:48;99506.53;;;33.85;24.59
51243;BME280;37812;47.556;18.718;2022-07-29T12:35:15;99506.13;;;34.20;25.23
51243;BME280;37812;47.556;18.718;2022-07-29T12:37:44;99506.72;;;34.93;24.93
51243;BME280;37812;47.556;18.718;2022-07-29T12:40:12;99502.69;;;34.18;24.90
51243;BME280;37812;47.556;18.718;2022-07-29T12:42:39;99492.81;;;35.39;24.03
51243;BME280;37812;47.556;18.718;2022-07-29T12:45:06;99497.56;;;35.48;23.04
51243;BME280;37812;47.556;18.718;2022-07-29T12:47:32;99493.47;;;36.06;23.44
51243;BME280;37812;47.556;18.718;2022-07-29T12:50:12;99501.25;;;34.68;24.55
51243;BME280;37812;47.556;18.718;2022-07-29T12:52:44;99490.22;;;34.17;25.51
51243;BME280;37812;47.556;18.718;2022-07-29T12:55:11;99489.00;;;34.35;24.95
51243;BME280;37812;47.556;18.718;2022-07-29T12:57:47;99477.94;;;35.33;23.58
51243;BME280;37812;47.556;18.718;2022-07-29T13:00:15;99476.69;;;34.18;24.69
51243;BME280;37812;47.556;18.718;2022-07-29T13:02:42;99485.81;;;32.84;25.53
51243;BME280;37812;47.556;18.718;2022-07-29T13:05:10;99480.81;;;33.38;25.25
51243;BME280;37812;47.556;18.718;2022-07-29T13:07:37;99482.16;;;33.45;25.60
51243;BME280;37812;47.556;18.718;2022-07-29T13:10:29;99479.59;;;33.14;26.16
51243;BME280;37812;47.556;18.718;2022-07-29T13:13:05;99480.16;;;32.59;26.46
51243;BME280;37812;47.556;18.718;2022-07-29T13:15:33;99479.09;;;32.61;26.03
51243;BME280;37812;47.556;18.718;2022-07-29T13:17:59;99464.88;;;33.21;25.89
51243;BME280;37812;47.556;18.718;2022-07-29T13:20:27;99463.94;;;33.36;25.81
51243;BME280;37812;47.556;18.718;2022-07-29T13:22:56;99462.59;;;33.29;27.03
51243;BME280;37812;47.556;18.718;2022-07-29T13:25:26;99464.19;;;32.87;25.72
51243;BME280;37812;47.556;18.718;2022-07-29T13:27:54;99454.00;;;33.38;26.15
51243;BME280;37812;47.556;18.718;2022-07-29T13:30:21;99444.63;;;33.74;26.14